x

Central Aleutians 230nm Sw Dutch Harbor (46072) Wave Buoy

6:50 - Fri 22nd Aug 2014 All times are UTC.

  • Sig Wave height 3.6ft
  • Peak Period 8s
  • Average Period 5s
  • Wind
    13mph, 16mph gusts
  • Sea Temp 53°f
  • Luft Temp 54°f
  • Sea Pressure 1012.1mb

More Historic Weather Station data

Upgrade to MSW Pro to gain access to the past 30 days of data for over 8000 Wavebouys and Weather Stations around the globe.

Join Pro

Comparision Forecast

View Surf forecast
   
Fr 08/22 6:50 3.5ft 8s 5s 13 16 mph 1012.1mb 53f 54f
5:50 4ft 7s 5s 11 13 mph 1012.2mb 53f 54f
4:50 4ft 7s 5s 11
mph
1012.3mb 53f 54f
3:50 4.5ft 8s 5s 11 13 mph 1012.3mb 53f 54f
2:50 5ft 6s 5s 9 11 mph 1012.6mb 53f 54f
1:50 4.5ft 7s 5s 11
mph
1012.9mb 53f 54f
12:50 4.5ft 7s 5s 11 13 mph 1013.4mb 53f 54f
Do 08/21 11:50 4.5ft 7s 5s 13 16 mph 1013.7mb 53f 53f
10:50 5ft 8s 6s 13 16 mph 1014.2mb 53f 54f
9:50 5.5ft 8s 6s 9 11 mph 1014.5mb 53f 54f
8:50 5ft 7s 5s 9 13 mph 1014.5mb 53f 53f
7:50 5.5ft 7s 6s 11 13 mph 1014.5mb 53f 53f
6:50 5ft 7s 6s 9 11 mph 1014.6mb 53f 54f
5:50 5ft 7s 5s 9 11 mph 1014.6mb 53f 53f
4:50 5ft 7s 6s 9 11 mph 1014.6mb 53f 53f
3:50 5ft 7s 5s 9 11 mph 1014.5mb 53f 54f
2:50 5ft 7s 5s 9 11 mph 1015mb 53f 54f
1:50 4.5ft 7s 5s 11 13 mph 1014.9mb 53f 54f
12:50 4.5ft 7s 5s 13 16 mph 1015.1mb 54f 54f
11:50 4.5ft 7s 5s 16 18 mph 1015.3mb 54f 54f
10:50 5ft 6s 5s 16 18 mph 1015.4mb 54f 54f
9:50 4.5ft 7s 5s 16 18 mph 1015.6mb 54f 54f
8:50 5ft 7s 5s 16 18 mph 1015.8mb 54f 54f
7:50 5ft 6s 5s 16 18 mph 1015.7mb 54f 54f
6:50 5ft 6s 5s 16 18 mph 1015.4mb 54f 54f
5:50 5ft 6s 5s 16 18 mph 1015.2mb 54f 54f
4:50 5ft 7s 5s 18 20 mph 1015.1mb 54f 54f
3:50 5ft 6s 5s 16 18 mph 1015.1mb 54f 54f
2:50 4.5ft 6s 5s 16 18 mph 1015.1mb 54f 54f
1:50 4.5ft 7s 5s 16 18 mph 1015.6mb 54f 54f
12:50 4.5ft 8s 5s 16 18 mph 1015.9mb 54f 54f
Mi 08/20 11:50 4.5ft 8s 4s 18 20 mph 1016.1mb 54f 54f
10:50 4.5ft 8s 5s 18 20 mph 1016.4mb 54f 54f
9:50 4ft 8s 4s 18 20 mph 1016.7mb 54f 54f
8:50 3.5ft 7s 5s 16 20 mph 1016.8mb 54f 54f
7:50 3.5ft 8s 5s 16
mph
1016.8mb 54f 54f
6:50 3.5ft 7s 5s 11 13 mph 1016.8mb 54f 54f
5:50 3.5ft 7s 5s 9 11 mph 1016.8mb 54f 54f
4:50 3.5ft 8s 5s 11 13 mph 1016.7mb 54f 54f
3:50 3.5ft 7s 5s 11 13 mph 1016.8mb 54f 53f
2:50 3.5ft 7s 5s 11 13 mph 1016.9mb 53f 54f
1:50 3.5ft 7s 5s 11 13 mph 1017.1mb 54f 54f
12:50 3.5ft 7s 5s 11 13 mph 1017.3mb 54f 54f
11:50 3.5ft 7s 5s 11 13 mph 1017.5mb 54f 54f
10:50 3.5ft 8s 6s 9 11 mph 1017.6mb 54f 54f
9:50 4.5ft 7s 6s 9 11 mph 1017.9mb 54f 54f
8:50 4ft 7s 6s 9 11 mph 1018mb 54f 54f
7:50 4ft 8s 6s 9 11 mph 1018mb 54f 54f
6:50 3.5ft 7s 6s 7 9 mph 1017.9mb 54f 54f
5:50 4ft 6s 6s 9 11 mph 1017.7mb 54f 54f
4:50 3.5ft 7s 6s 9 11 mph 1017.7mb 54f 54f
3:50 3.5ft 7s 6s 9 11 mph 1017.7mb 55f 54f
2:50 3ft 7s 6s 9 11 mph 1017.8mb 55f 54f
1:50 3ft 7s 6s 9
mph
1018.2mb 54f 54f
12:50 3.5ft 6s 6s 9
mph
1018.3mb 54f 54f
Di 08/19 11:50 3.5ft 7s 6s 7
mph
1018.5mb 53f 54f
10:50 3.5ft 7s 6s 7
mph
1018.6mb 53f 53f
9:50 3.5ft 6s 6s 7
mph
1018.7mb 53f 53f
8:50 4ft 7s 6s 4
mph
1018.6mb 53f 53f
7:50 4ft 8s 6s 2 4 mph 1018.5mb 52f 53f
6:50 4ft 7s 6s 4
mph
1018.3mb 52f 52f
5:50 4ft 6s 6s 4
mph
1018.2mb 54f 52f
4:50 4.5ft 8s 6s 2 4 mph 1018.1mb 54f 52f
3:50 4ft 7s 6s 4
mph
1017.9mb 54f 52f
2:50 4ft 7s 6s 4 7 mph 1018mb 54f 52f
1:50 4ft 8s 6s 4
mph
1017.9mb 54f 52f
12:50 4ft 8s 6s 4
mph
1017.9mb 54f 52f
11:50 4ft 8s 6s 4 7 mph 1018.1mb 54f 53f
10:50 3.5ft 8s 6s 7
mph
1018.2mb 54f 53f
9:50 3.5ft 8s 6s 4 7 mph 1017.9mb 54f 53f
8:50 3.5ft 8s 6s 7
mph
1017.9mb 53f 53f
7:50 3ft 9s 5s 7 9 mph 1017.8mb 54f 52f
6:50 3ft 15s 6s 7 9 mph 1017.4mb 54f 52f
5:50 3ft 8s 6s 9 11 mph 1017.1mb 54f 53f
4:50 3ft 9s 6s 9 11 mph 1017.1mb 54f 53f
3:50 2.5ft 8s 5s 9
mph
1017mb 54f 53f
2:50 3ft 9s 5s 7 9 mph 1017.1mb 54f 53f
1:50 3ft 8s 5s 4 7 mph 1017.2mb 54f 53f
12:50 3ft 9s 5s 4 7 mph 1017.4mb 54f 54f
Mo 08/18 11:50 3ft 8s 6s 7
mph
1017.4mb 53f 54f
10:50 3ft 9s 6s 7
mph
1017.5mb 54f 54f
9:50 3ft 8s 6s 9
mph
1017.6mb 53f 54f
8:50 3.5ft 9s 6s 7 9 mph 1017.6mb 53f 53f
7:50 3.5ft 8s 6s 9 11 mph 1017.2mb 54f 54f
6:50 3.5ft 7s 6s 7 9 mph 1017.1mb 54f 53f
5:50 3.5ft 9s 5s 7
mph
1017mb 53f 53f
4:50 3.5ft 10s 5s 9
mph
1017mb 53f 52f
3:50 3.5ft 8s 5s 13 16 mph 1017mb 53f 52f
2:50 3.5ft 8s 4s 11 13 mph 1017.1mb 52f 52f
1:50 3.5ft 8s 4s 16 18 mph 1017.1mb 52f 53f
12:50 3.5ft 8s 4s 16 18 mph 1017.2mb 52f 53f
11:50 3.5ft 8s 6s 18 20 mph 1017.5mb 53f 52f
10:50 3.5ft 7s 6s 11 13 mph 1018mb 53f 53f
9:50 3.5ft 8s 6s 11 13 mph 1018mb 53f 53f
8:50 3.5ft 8s 6s 9 11 mph 1018.2mb 53f 53f